sensor_id;sensor_type;location;lat;lon;timestamp;P1;durP1;ratioP1;P2;durP2;ratioP2
23712;SDS011;12035;49.978;8.298;2024-03-08T00:01:07;12.50;;;8.32;;
23712;SDS011;12035;49.978;8.298;2024-03-08T00:06:04;15.60;;;9.93;;
23712;SDS011;12035;49.978;8.298;2024-03-08T00:11:03;17.33;;;9.52;;
23712;SDS011;12035;49.978;8.298;2024-03-08T00:16:00;15.35;;;9.02;;
23712;SDS011;12035;49.978;8.298;2024-03-08T00:20:58;20.90;;;9.80;;
23712;SDS011;12035;49.978;8.298;2024-03-08T00:25:55;17.92;;;9.65;;
23712;SDS011;12035;49.978;8.298;2024-03-08T00:30:54;17.98;;;10.85;;
23712;SDS011;12035;49.978;8.298;2024-03-08T00:35:51;15.82;;;9.32;;
23712;SDS011;12035;49.978;8.298;2024-03-08T00:40:50;16.80;;;10.27;;
23712;SDS011;12035;49.978;8.298;2024-03-08T00:45:47;16.10;;;10.50;;
23712;SDS011;12035;49.978;8.298;2024-03-08T00:50:45;18.75;;;11.27;;
23712;SDS011;12035;49.978;8.298;2024-03-08T00:55:45;19.40;;;10.35;;
23712;SDS011;12035;49.978;8.298;2024-03-08T01:00:42;16.27;;;9.32;;
23712;SDS011;12035;49.978;8.298;2024-03-08T01:05:39;15.15;;;8.60;;
23712;SDS011;12035;49.978;8.298;2024-03-08T01:10:38;18.27;;;10.30;;
23712;SDS011;12035;49.978;8.298;2024-03-08T01:15:35;17.27;;;10.10;;
23712;SDS011;12035;49.978;8.298;2024-03-08T01:20:32;16.70;;;9.93;;
23712;SDS011;12035;49.978;8.298;2024-03-08T01:25:29;16.98;;;9.77;;
23712;SDS011;12035;49.978;8.298;2024-03-08T01:30:28;16.20;;;9.52;;
23712;SDS011;12035;49.978;8.298;2024-03-08T01:35:27;14.90;;;8.77;;
23712;SDS011;12035;49.978;8.298;2024-03-08T01:40:25;17.20;;;9.38;;
23712;SDS011;12035;49.978;8.298;2024-03-08T01:45:22;16.85;;;9.93;;
23712;SDS011;12035;49.978;8.298;2024-03-08T01:50:20;13.60;;;8.45;;
23712;SDS011;12035;49.978;8.298;2024-03-08T01:55:17;15.48;;;8.90;;
23712;SDS011;12035;49.978;8.298;2024-03-08T02:00:16;15.25;;;8.93;;
23712;SDS011;12035;49.978;8.298;2024-03-08T02:05:14;16.23;;;9.13;;
23712;SDS011;12035;49.978;8.298;2024-03-08T02:10:15;16.73;;;8.98;;
23712;SDS011;12035;49.978;8.298;2024-03-08T02:15:12;16.83;;;9.80;;
23712;SDS011;12035;49.978;8.298;2024-03-08T02:20:10;17.13;;;10.23;;
23712;SDS011;12035;49.978;8.298;2024-03-08T02:25:09;17.17;;;9.70;;
23712;SDS011;12035;49.978;8.298;2024-03-08T02:30:08;18.08;;;10.55;;
23712;SDS011;12035;49.978;8.298;2024-03-08T02:35:07;19.10;;;10.18;;
23712;SDS011;12035;49.978;8.298;2024-03-08T02:40:05;19.27;;;10.02;;
23712;SDS011;12035;49.978;8.298;2024-03-08T02:45:05;16.90;;;11.02;;
23712;SDS011;12035;49.978;8.298;2024-03-08T02:50:05;17.92;;;10.77;;
23712;SDS011;12035;49.978;8.298;2024-03-08T02:55:04;17.45;;;10.70;;
23712;SDS011;12035;49.978;8.298;2024-03-08T03:00:05;19.95;;;11.40;;
23712;SDS011;12035;49.978;8.298;2024-03-08T03:05:04;20.40;;;11.57;;
23712;SDS011;12035;49.978;8.298;2024-03-08T03:10:05;18.70;;;10.82;;
23712;SDS011;12035;49.978;8.298;2024-03-08T03:15:05;18.85;;;10.73;;
23712;SDS011;12035;49.978;8.298;2024-03-08T03:20:04;21.75;;;11.10;;
23712;SDS011;12035;49.978;8.298;2024-03-08T03:25:06;21.63;;;11.82;;
23712;SDS011;12035;49.978;8.298;2024-03-08T03:30:06;20.10;;;12.10;;
23712;SDS011;12035;49.978;8.298;2024-03-08T03:35:16;17.25;;;10.30;;
23712;SDS011;12035;49.978;8.298;2024-03-08T03:40:15;17.83;;;10.52;;
23712;SDS011;12035;49.978;8.298;2024-03-08T03:45:15;17.23;;;10.55;;
23712;SDS011;12035;49.978;8.298;2024-03-08T03:50:15;19.25;;;10.38;;
23712;SDS011;12035;49.978;8.298;2024-03-08T03:55:14;21.70;;;11.98;;
23712;SDS011;12035;49.978;8.298;2024-03-08T04:00:11;15.90;;;9.32;;
23712;SDS011;12035;49.978;8.298;2024-03-08T04:05:11;17.33;;;9.63;;
23712;SDS011;12035;49.978;8.298;2024-03-08T04:10:08;17.10;;;9.82;;
23712;SDS011;12035;49.978;8.298;2024-03-08T04:15:07;21.75;;;11.05;;
23712;SDS011;12035;49.978;8.298;2024-03-08T04:20:07;17.45;;;10.70;;
23712;SDS011;12035;49.978;8.298;2024-03-08T04:25:05;17.30;;;10.27;;
23712;SDS011;12035;49.978;8.298;2024-03-08T04:30:04;22.67;;;11.38;;
23712;SDS011;12035;49.978;8.298;2024-03-08T04:35:03;22.05;;;11.23;;
23712;SDS011;12035;49.978;8.298;2024-03-08T04:40:02;17.30;;;10.07;;
23712;SDS011;12035;49.978;8.298;2024-03-08T04:45:00;17.70;;;10.43;;
23712;SDS011;12035;49.978;8.298;2024-03-08T04:49:59;18.65;;;10.40;;
23712;SDS011;12035;49.978;8.298;2024-03-08T04:54:56;17.45;;;11.20;;
23712;SDS011;12035;49.978;8.298;2024-03-08T04:59:54;16.55;;;9.98;;
23712;SDS011;12035;49.978;8.298;2024-03-08T05:04:54;17.15;;;9.27;;
23712;SDS011;12035;49.978;8.298;2024-03-08T05:09:51;15.23;;;8.60;;
23712;SDS011;12035;49.978;8.298;2024-03-08T05:14:48;16.63;;;9.23;;
23712;SDS011;12035;49.978;8.298;2024-03-08T05:19:46;23.30;;;11.52;;
23712;SDS011;12035;49.978;8.298;2024-03-08T05:24:43;18.55;;;10.50;;
23712;SDS011;12035;49.978;8.298;2024-03-08T05:29:41;22.02;;;12.50;;
23712;SDS011;12035;49.978;8.298;2024-03-08T05:34:38;18.08;;;10.98;;
23712;SDS011;12035;49.978;8.298;2024-03-08T05:39:36;20.85;;;11.48;;
23712;SDS011;12035;49.978;8.298;2024-03-08T05:44:33;18.73;;;11.55;;
23712;SDS011;12035;49.978;8.298;2024-03-08T05:49:30;22.38;;;12.00;;
23712;SDS011;12035;49.978;8.298;2024-03-08T05:54:27;21.65;;;12.20;;
23712;SDS011;12035;49.978;8.298;2024-03-08T05:59:26;20.35;;;12.23;;
23712;SDS011;12035;49.978;8.298;2024-03-08T06:04:23;17.92;;;10.85;;
23712;SDS011;12035;49.978;8.298;2024-03-08T06:09:20;18.55;;;11.13;;
23712;SDS011;12035;49.978;8.298;2024-03-08T06:14:18;18.95;;;11.48;;
23712;SDS011;12035;49.978;8.298;2024-03-08T06:19:16;21.77;;;12.20;;
23712;SDS011;12035;49.978;8.298;2024-03-08T06:24:13;19.58;;;12.20;;
23712;SDS011;12035;49.978;8.298;2024-03-08T06:29:12;18.55;;;12.38;;
23712;SDS011;12035;49.978;8.298;2024-03-08T06:34:10;23.83;;;12.73;;
23712;SDS011;12035;49.978;8.298;2024-03-08T06:39:09;25.35;;;13.55;;
23712;SDS011;12035;49.978;8.298;2024-03-08T06:44:06;24.45;;;13.80;;
23712;SDS011;12035;49.978;8.298;2024-03-08T06:49:04;21.85;;;13.27;;
23712;SDS011;12035;49.978;8.298;2024-03-08T06:54:02;17.77;;;11.68;;
23712;SDS011;12035;49.978;8.298;2024-03-08T06:59:05;21.08;;;13.40;;
23712;SDS011;12035;49.978;8.298;2024-03-08T07:04:04;21.58;;;13.18;;
23712;SDS011;12035;49.978;8.298;2024-03-08T07:09:01;20.70;;;13.38;;
23712;SDS011;12035;49.978;8.298;2024-03-08T07:13:58;21.20;;;13.80;;
23712;SDS011;12035;49.978;8.298;2024-03-08T07:18:59;22.90;;;13.15;;
23712;SDS011;12035;49.978;8.298;2024-03-08T07:23:56;22.27;;;13.55;;
23712;SDS011;12035;49.978;8.298;2024-03-08T07:29:13;22.38;;;14.65;;
23712;SDS011;12035;49.978;8.298;2024-03-08T07:34:12;20.98;;;13.38;;
23712;SDS011;12035;49.978;8.298;2024-03-08T07:39:09;20.98;;;12.68;;
23712;SDS011;12035;49.978;8.298;2024-03-08T07:44:06;22.38;;;13.85;;
23712;SDS011;12035;49.978;8.298;2024-03-08T07:49:04;21.35;;;13.15;;
23712;SDS011;12035;49.978;8.298;2024-03-08T07:54:02;23.90;;;14.13;;
23712;SDS011;12035;49.978;8.298;2024-03-08T07:59:00;20.98;;;13.30;;
23712;SDS011;12035;49.978;8.298;2024-03-08T08:03:59;21.95;;;13.20;;
23712;SDS011;12035;49.978;8.298;2024-03-08T08:08:57;21.30;;;12.88;;
23712;SDS011;12035;49.978;8.298;2024-03-08T08:13:55;21.05;;;13.07;;
23712;SDS011;12035;49.978;8.298;2024-03-08T08:18:52;21.02;;;13.35;;
23712;SDS011;12035;49.978;8.298;2024-03-08T08:23:50;22.83;;;12.63;;
23712;SDS011;12035;49.978;8.298;2024-03-08T08:28:47;18.75;;;12.00;;
23712;SDS011;12035;49.978;8.298;2024-03-08T08:33:45;22.88;;;12.02;;
23712;SDS011;12035;49.978;8.298;2024-03-08T08:38:43;20.75;;;12.32;;
23712;SDS011;12035;49.978;8.298;2024-03-08T08:43:40;21.55;;;12.45;;
23712;SDS011;12035;49.978;8.298;2024-03-08T08:48:39;20.00;;;11.82;;
23712;SDS011;12035;49.978;8.298;2024-03-08T08:53:38;21.95;;;12.43;;
23712;SDS011;12035;49.978;8.298;2024-03-08T08:58:37;20.58;;;12.60;;
23712;SDS011;12035;49.978;8.298;2024-03-08T09:03:36;18.10;;;11.30;;
23712;SDS011;12035;49.978;8.298;2024-03-08T09:08:35;19.50;;;11.80;;
23712;SDS011;12035;49.978;8.298;2024-03-08T09:13:34;19.85;;;12.27;;
23712;SDS011;12035;49.978;8.298;2024-03-08T09:18:31;19.38;;;12.52;;
23712;SDS011;12035;49.978;8.298;2024-03-08T09:23:28;19.77;;;12.40;;
23712;SDS011;12035;49.978;8.298;2024-03-08T09:28:27;21.52;;;12.75;;
23712;SDS011;12035;49.978;8.298;2024-03-08T09:33:24;20.48;;;11.05;;
23712;SDS011;12035;49.978;8.298;2024-03-08T09:38:23;18.15;;;11.50;;
23712;SDS011;12035;49.978;8.298;2024-03-08T09:43:21;17.55;;;11.23;;
23712;SDS011;12035;49.978;8.298;2024-03-08T09:48:20;19.30;;;10.63;;
23712;SDS011;12035;49.978;8.298;2024-03-08T09:53:19;18.42;;;10.52;;
23712;SDS011;12035;49.978;8.298;2024-03-08T09:58:17;15.93;;;9.98;;
23712;SDS011;12035;49.978;8.298;2024-03-08T10:03:50;16.55;;;10.10;;
23712;SDS011;12035;49.978;8.298;2024-03-08T10:08:50;14.88;;;10.13;;
23712;SDS011;12035;49.978;8.298;2024-03-08T10:13:47;16.40;;;10.73;;
23712;SDS011;12035;49.978;8.298;2024-03-08T10:18:46;15.90;;;9.85;;
23712;SDS011;12035;49.978;8.298;2024-03-08T10:23:44;17.73;;;9.65;;
23712;SDS011;12035;49.978;8.298;2024-03-08T10:28:43;15.18;;;8.73;;
23712;SDS011;12035;49.978;8.298;2024-03-08T10:33:42;13.88;;;8.68;;
23712;SDS011;12035;49.978;8.298;2024-03-08T10:38:41;14.50;;;9.05;;
23712;SDS011;12035;49.978;8.298;2024-03-08T10:43:47;14.55;;;9.32;;
23712;SDS011;12035;49.978;8.298;2024-03-08T10:49:08;15.93;;;10.20;;
23712;SDS011;12035;49.978;8.298;2024-03-08T10:54:13;14.38;;;9.02;;
23712;SDS011;12035;49.978;8.298;2024-03-08T10:59:14;13.95;;;9.18;;
23712;SDS011;12035;49.978;8.298;2024-03-08T11:04:12;14.40;;;9.40;;
23712;SDS011;12035;49.978;8.298;2024-03-08T11:14:45;18.48;;;9.20;;
23712;SDS011;12035;49.978;8.298;2024-03-08T11:19:45;15.18;;;9.02;;
23712;SDS011;12035;49.978;8.298;2024-03-08T11:24:43;14.68;;;9.65;;
23712;SDS011;12035;49.978;8.298;2024-03-08T11:29:40;15.63;;;10.20;;
23712;SDS011;12035;49.978;8.298;2024-03-08T11:34:39;17.08;;;10.52;;
23712;SDS011;12035;49.978;8.298;2024-03-08T11:39:39;18.05;;;10.00;;
23712;SDS011;12035;49.978;8.298;2024-03-08T11:44:37;14.10;;;9.82;;
23712;SDS011;12035;49.978;8.298;2024-03-08T11:49:39;14.98;;;9.77;;
23712;SDS011;12035;49.978;8.298;2024-03-08T11:54:39;17.75;;;10.50;;
23712;SDS011;12035;49.978;8.298;2024-03-08T11:59:36;17.42;;;10.15;;
23712;SDS011;12035;49.978;8.298;2024-03-08T12:04:33;14.88;;;10.57;;
23712;SDS011;12035;49.978;8.298;2024-03-08T12:09:32;18.17;;;10.60;;
23712;SDS011;12035;49.978;8.298;2024-03-08T12:14:31;27.13;;;11.38;;
23712;SDS011;12035;49.978;8.298;2024-03-08T12:19:29;18.27;;;11.85;;
23712;SDS011;12035;49.978;8.298;2024-03-08T12:24:26;15.63;;;10.07;;
23712;SDS011;12035;49.978;8.298;2024-03-08T12:29:27;15.30;;;10.63;;
23712;SDS011;12035;49.978;8.298;2024-03-08T12:34:25;18.15;;;11.00;;
23712;SDS011;12035;49.978;8.298;2024-03-08T12:39:23;16.88;;;11.15;;
23712;SDS011;12035;49.978;8.298;2024-03-08T12:44:21;18.17;;;11.30;;
23712;SDS011;12035;49.978;8.298;2024-03-08T12:49:21;15.75;;;10.30;;
23712;SDS011;12035;49.978;8.298;2024-03-08T12:54:18;17.80;;;11.13;;
23712;SDS011;12035;49.978;8.298;2024-03-08T12:59:18;15.50;;;9.98;;
23712;SDS011;12035;49.978;8.298;2024-03-08T13:04:17;15.57;;;10.10;;
23712;SDS011;12035;49.978;8.298;2024-03-08T13:09:17;15.00;;;10.00;;
23712;SDS011;12035;49.978;8.298;2024-03-08T13:14:15;17.50;;;10.50;;
23712;SDS011;12035;49.978;8.298;2024-03-08T13:19:14;17.90;;;10.65;;
23712;SDS011;12035;49.978;8.298;2024-03-08T13:24:11;17.50;;;9.95;;
23712;SDS011;12035;49.978;8.298;2024-03-08T13:29:12;16.67;;;10.27;;
23712;SDS011;12035;49.978;8.298;2024-03-08T13:34:09;17.90;;;11.63;;
23712;SDS011;12035;49.978;8.298;2024-03-08T13:39:07;17.20;;;10.73;;
23712;SDS011;12035;49.978;8.298;2024-03-08T13:44:11;15.05;;;10.20;;
23712;SDS011;12035;49.978;8.298;2024-03-08T13:49:08;17.83;;;11.38;;
23712;SDS011;12035;49.978;8.298;2024-03-08T13:54:06;15.60;;;10.20;;
23712;SDS011;12035;49.978;8.298;2024-03-08T13:59:03;16.60;;;10.02;;
23712;SDS011;12035;49.978;8.298;2024-03-08T14:04:01;17.45;;;10.77;;
23712;SDS011;12035;49.978;8.298;2024-03-08T14:09:00;20.08;;;9.95;;
23712;SDS011;12035;49.978;8.298;2024-03-08T14:13:57;16.95;;;10.68;;
23712;SDS011;12035;49.978;8.298;2024-03-08T14:18:54;18.38;;;11.07;;
23712;SDS011;12035;49.978;8.298;2024-03-08T14:23:52;16.70;;;10.63;;
23712;SDS011;12035;49.978;8.298;2024-03-08T14:28:49;16.00;;;10.10;;
23712;SDS011;12035;49.978;8.298;2024-03-08T14:33:49;17.33;;;10.23;;
23712;SDS011;12035;49.978;8.298;2024-03-08T14:38:46;16.10;;;10.30;;
23712;SDS011;12035;49.978;8.298;2024-03-08T14:43:45;15.45;;;9.95;;
23712;SDS011;12035;49.978;8.298;2024-03-08T14:48:42;16.67;;;10.20;;
23712;SDS011;12035;49.978;8.298;2024-03-08T14:53:40;15.93;;;10.48;;
23712;SDS011;12035;49.978;8.298;2024-03-08T14:58:40;16.02;;;10.00;;
23712;SDS011;12035;49.978;8.298;2024-03-08T15:03:38;18.25;;;10.48;;
23712;SDS011;12035;49.978;8.298;2024-03-08T15:08:36;19.52;;;10.10;;
23712;SDS011;12035;49.978;8.298;2024-03-08T15:13:33;17.40;;;10.18;;
23712;SDS011;12035;49.978;8.298;2024-03-08T15:18:36;16.02;;;9.57;;
23712;SDS011;12035;49.978;8.298;2024-03-08T15:23:35;15.13;;;9.45;;
23712;SDS011;12035;49.978;8.298;2024-03-08T15:28:32;17.80;;;9.30;;
23712;SDS011;12035;49.978;8.298;2024-03-08T15:33:32;20.17;;;10.40;;
23712;SDS011;12035;49.978;8.298;2024-03-08T15:38:30;19.95;;;10.48;;
23712;SDS011;12035;49.978;8.298;2024-03-08T15:43:28;16.13;;;9.55;;
23712;SDS011;12035;49.978;8.298;2024-03-08T15:48:26;17.45;;;9.98;;
23712;SDS011;12035;49.978;8.298;2024-03-08T15:53:26;22.13;;;11.32;;
23712;SDS011;12035;49.978;8.298;2024-03-08T15:58:25;17.92;;;9.40;;
23712;SDS011;12035;49.978;8.298;2024-03-08T16:03:23;16.40;;;8.70;;
23712;SDS011;12035;49.978;8.298;2024-03-08T16:08:23;15.52;;;10.02;;
23712;SDS011;12035;49.978;8.298;2024-03-08T16:13:21;15.27;;;9.65;;
23712;SDS011;12035;49.978;8.298;2024-03-08T16:18:19;15.63;;;9.30;;
23712;SDS011;12035;49.978;8.298;2024-03-08T16:23:19;17.60;;;10.30;;
23712;SDS011;12035;49.978;8.298;2024-03-08T16:28:17;12.80;;;8.63;;
23712;SDS011;12035;49.978;8.298;2024-03-08T16:33:18;13.82;;;8.52;;
23712;SDS011;12035;49.978;8.298;2024-03-08T16:38:18;14.13;;;8.75;;
23712;SDS011;12035;49.978;8.298;2024-03-08T16:43:18;13.48;;;8.63;;
23712;SDS011;12035;49.978;8.298;2024-03-08T16:48:16;13.13;;;8.27;;
23712;SDS011;12035;49.978;8.298;2024-03-08T16:53:19;14.00;;;8.60;;
23712;SDS011;12035;49.978;8.298;2024-03-08T16:58:16;13.38;;;8.20;;
23712;SDS011;12035;49.978;8.298;2024-03-08T17:03:13;11.70;;;7.30;;
23712;SDS011;12035;49.978;8.298;2024-03-08T17:08:11;13.45;;;7.55;;
23712;SDS011;12035;49.978;8.298;2024-03-08T17:13:11;14.05;;;7.93;;
23712;SDS011;12035;49.978;8.298;2024-03-08T17:18:09;13.77;;;7.60;;
23712;SDS011;12035;49.978;8.298;2024-03-08T17:23:08;11.20;;;6.75;;
23712;SDS011;12035;49.978;8.298;2024-03-08T17:28:08;11.95;;;6.78;;
23712;SDS011;12035;49.978;8.298;2024-03-08T17:33:08;12.35;;;6.55;;
23712;SDS011;12035;49.978;8.298;2024-03-08T17:38:06;10.48;;;6.75;;
23712;SDS011;12035;49.978;8.298;2024-03-08T17:43:06;11.48;;;7.20;;
23712;SDS011;12035;49.978;8.298;2024-03-08T17:48:08;11.63;;;6.65;;
23712;SDS011;12035;49.978;8.298;2024-03-08T17:53:07;13.25;;;7.57;;
23712;SDS011;12035;49.978;8.298;2024-03-08T17:58:05;13.05;;;7.53;;
23712;SDS011;12035;49.978;8.298;2024-03-08T18:03:02;16.13;;;8.15;;
23712;SDS011;12035;49.978;8.298;2024-03-08T18:08:05;18.38;;;9.98;;
23712;SDS011;12035;49.978;8.298;2024-03-08T18:13:03;19.45;;;9.02;;
23712;SDS011;12035;49.978;8.298;2024-03-08T18:18:07;13.15;;;7.70;;
23712;SDS011;12035;49.978;8.298;2024-03-08T18:23:07;16.30;;;7.22;;
23712;SDS011;12035;49.978;8.298;2024-03-08T18:28:05;15.35;;;7.95;;
23712;SDS011;12035;49.978;8.298;2024-03-08T18:33:03;15.77;;;7.05;;
23712;SDS011;12035;49.978;8.298;2024-03-08T18:38:02;13.40;;;7.35;;
23712;SDS011;12035;49.978;8.298;2024-03-08T18:43:02;14.35;;;7.53;;
23712;SDS011;12035;49.978;8.298;2024-03-08T18:48:01;13.63;;;7.57;;
23712;SDS011;12035;49.978;8.298;2024-03-08T18:53:00;13.05;;;7.43;;
23712;SDS011;12035;49.978;8.298;2024-03-08T18:57:58;14.52;;;7.55;;
23712;SDS011;12035;49.978;8.298;2024-03-08T19:02:57;12.40;;;6.80;;
23712;SDS011;12035;49.978;8.298;2024-03-08T19:08:00;12.60;;;6.25;;
23712;SDS011;12035;49.978;8.298;2024-03-08T19:13:02;13.25;;;6.72;;
23712;SDS011;12035;49.978;8.298;2024-03-08T19:18:01;12.75;;;6.90;;
23712;SDS011;12035;49.978;8.298;2024-03-08T19:23:03;11.07;;;6.60;;
23712;SDS011;12035;49.978;8.298;2024-03-08T19:28:02;11.95;;;6.85;;
23712;SDS011;12035;49.978;8.298;2024-03-08T19:33:03;12.45;;;7.07;;
23712;SDS011;12035;49.978;8.298;2024-03-08T19:38:03;11.85;;;6.38;;
23712;SDS011;12035;49.978;8.298;2024-03-08T19:43:02;14.32;;;7.75;;
23712;SDS011;12035;49.978;8.298;2024-03-08T19:48:03;11.70;;;6.53;;
23712;SDS011;12035;49.978;8.298;2024-03-08T19:53:01;12.43;;;6.85;;
23712;SDS011;12035;49.978;8.298;2024-03-08T19:58:02;15.02;;;7.13;;
23712;SDS011;12035;49.978;8.298;2024-03-08T20:03:02;13.32;;;7.22;;
23712;SDS011;12035;49.978;8.298;2024-03-08T20:08:02;12.80;;;7.22;;
23712;SDS011;12035;49.978;8.298;2024-03-08T20:13:03;14.60;;;7.53;;
23712;SDS011;12035;49.978;8.298;2024-03-08T20:18:03;13.32;;;7.72;;
23712;SDS011;12035;49.978;8.298;2024-03-08T20:23:03;12.82;;;7.70;;
23712;SDS011;12035;49.978;8.298;2024-03-08T20:28:03;13.05;;;7.18;;
23712;SDS011;12035;49.978;8.298;2024-03-08T20:33:01;12.55;;;7.07;;
23712;SDS011;12035;49.978;8.298;2024-03-08T20:38:03;14.10;;;8.23;;
23712;SDS011;12035;49.978;8.298;2024-03-08T20:43:02;15.43;;;8.45;;
23712;SDS011;12035;49.978;8.298;2024-03-08T20:48:05;13.50;;;7.78;;
23712;SDS011;12035;49.978;8.298;2024-03-08T20:53:03;20.73;;;9.80;;
23712;SDS011;12035;49.978;8.298;2024-03-08T20:58:04;16.52;;;8.85;;
23712;SDS011;12035;49.978;8.298;2024-03-08T21:03:01;16.67;;;9.35;;
23712;SDS011;12035;49.978;8.298;2024-03-08T21:08:02;15.18;;;8.88;;
23712;SDS011;12035;49.978;8.298;2024-03-08T21:13:01;20.13;;;10.88;;
23712;SDS011;12035;49.978;8.298;2024-03-08T21:17:59;19.83;;;9.80;;
23712;SDS011;12035;49.978;8.298;2024-03-08T21:22:59;23.10;;;10.15;;
23712;SDS011;12035;49.978;8.298;2024-03-08T21:27:59;13.88;;;8.10;;
23712;SDS011;12035;49.978;8.298;2024-03-08T21:32:58;17.05;;;8.38;;
23712;SDS011;12035;49.978;8.298;2024-03-08T21:37:59;13.90;;;8.57;;
23712;SDS011;12035;49.978;8.298;2024-03-08T21:42:56;13.32;;;8.15;;
23712;SDS011;12035;49.978;8.298;2024-03-08T21:47:58;12.32;;;8.02;;
23712;SDS011;12035;49.978;8.298;2024-03-08T21:52:55;15.25;;;7.93;;
23712;SDS011;12035;49.978;8.298;2024-03-08T21:57:56;11.75;;;7.43;;
23712;SDS011;12035;49.978;8.298;2024-03-08T22:02:53;16.13;;;8.10;;
23712;SDS011;12035;49.978;8.298;2024-03-08T22:07:51;14.63;;;7.93;;
23712;SDS011;12035;49.978;8.298;2024-03-08T22:12:49;13.93;;;8.57;;
23712;SDS011;12035;49.978;8.298;2024-03-08T22:17:48;11.73;;;7.10;;
23712;SDS011;12035;49.978;8.298;2024-03-08T22:22:48;12.75;;;7.38;;
23712;SDS011;12035;49.978;8.298;2024-03-08T22:27:46;12.48;;;7.97;;
23712;SDS011;12035;49.978;8.298;2024-03-08T22:32:44;13.50;;;7.93;;
23712;SDS011;12035;49.978;8.298;2024-03-08T22:37:43;16.17;;;7.40;;
23712;SDS011;12035;49.978;8.298;2024-03-08T22:42:41;12.00;;;7.47;;
23712;SDS011;12035;49.978;8.298;2024-03-08T22:47:40;12.93;;;7.18;;
23712;SDS011;12035;49.978;8.298;2024-03-08T22:52:42;13.05;;;7.10;;
23712;SDS011;12035;49.978;8.298;2024-03-08T22:57:41;11.98;;;7.88;;
23712;SDS011;12035;49.978;8.298;2024-03-08T23:02:39;14.82;;;8.15;;
23712;SDS011;12035;49.978;8.298;2024-03-08T23:07:36;13.00;;;7.70;;
23712;SDS011;12035;49.978;8.298;2024-03-08T23:12:36;12.85;;;8.05;;
23712;SDS011;12035;49.978;8.298;2024-03-08T23:17:33;13.63;;;8.00;;
23712;SDS011;12035;49.978;8.298;2024-03-08T23:22:35;11.80;;;7.68;;
23712;SDS011;12035;49.978;8.298;2024-03-08T23:27:33;15.65;;;8.50;;
23712;SDS011;12035;49.978;8.298;2024-03-08T23:32:31;12.68;;;8.35;;
23712;SDS011;12035;49.978;8.298;2024-03-08T23:37:29;12.65;;;8.00;;
23712;SDS011;12035;49.978;8.298;2024-03-08T23:42:26;13.00;;;7.93;;
23712;SDS011;12035;49.978;8.298;2024-03-08T23:47:23;12.55;;;7.75;;
23712;SDS011;12035;49.978;8.298;2024-03-08T23:52:22;14.23;;;8.55;;
23712;SDS011;12035;49.978;8.298;2024-03-08T23:57:19;13.38;;;7.93;;
